createdAt,value
2018-04-26T00:01:56.651Z,10.70
2018-04-26T00:04:24.179Z,10.60
2018-04-26T00:06:52.490Z,10.70
2018-04-26T00:09:20.054Z,10.60
2018-04-26T00:11:47.695Z,10.60
2018-04-26T00:14:15.182Z,10.50
2018-04-26T00:16:43.519Z,10.60
2018-04-26T00:19:11.057Z,10.50
2018-04-26T00:21:38.643Z,10.60
2018-04-26T00:24:06.169Z,10.60
2018-04-26T00:26:33.729Z,10.60
2018-04-26T00:29:01.283Z,10.60
2018-04-26T00:31:28.816Z,10.60
2018-04-26T00:33:57.252Z,10.50
2018-04-26T00:36:24.818Z,10.50
2018-04-26T00:38:52.384Z,10.60
2018-04-26T00:41:19.924Z,10.50
2018-04-26T00:43:47.507Z,10.50
2018-04-26T00:46:15.045Z,10.60
2018-04-26T00:48:42.603Z,10.60
2018-04-26T00:51:10.126Z,10.60
2018-04-26T00:53:38.444Z,10.60
2018-04-26T00:56:05.971Z,10.60
2018-04-26T00:58:34.296Z,10.60
2018-04-26T01:01:01.837Z,10.60
2018-04-26T01:03:29.416Z,10.70
2018-04-26T01:05:56.948Z,10.70
2018-04-26T01:08:24.487Z,10.70
2018-04-26T01:10:52.814Z,10.60
2018-04-26T01:13:20.341Z,10.60
2018-04-26T01:15:47.895Z,10.60
2018-04-26T01:18:16.182Z,10.50
2018-04-26T01:20:43.739Z,10.50
2018-04-26T01:23:11.268Z,10.50
2018-04-26T01:25:39.599Z,10.40
2018-04-26T01:28:07.202Z,10.40
2018-04-26T01:30:34.746Z,10.50
2018-04-26T01:33:02.314Z,10.50
2018-04-26T01:35:29.851Z,10.40
2018-04-26T01:37:57.410Z,10.30
2018-04-26T01:40:24.931Z,10.30
2018-04-26T01:42:52.488Z,10.40
2018-04-26T01:45:20.031Z,10.30
2018-04-26T01:47:47.593Z,10.40
2018-04-26T01:50:15.143Z,10.30
2018-04-26T01:52:43.437Z,10.20
2018-04-26T01:55:11.011Z,10.20
2018-04-26T01:57:38.571Z,10.20
2018-04-26T02:00:06.167Z,10.10
2018-04-26T02:02:33.703Z,10.10
2018-04-26T02:05:01.271Z,10.10
2018-04-26T02:07:28.807Z,10.10
2018-04-26T02:09:56.352Z,10.00
2018-04-26T02:12:23.913Z,10.00
2018-04-26T02:14:51.453Z,10.00
2018-04-26T02:17:19.764Z,10.00
2018-04-26T02:19:47.304Z,10.00
2018-04-26T02:22:16.742Z,9.90
2018-04-26T02:24:44.292Z,9.80
2018-04-26T02:27:11.821Z,9.70
2018-04-26T02:29:39.362Z,9.60
2018-04-26T02:32:06.916Z,9.60
2018-04-26T02:34:34.442Z,9.60
2018-04-26T02:37:01.985Z,9.70
2018-04-26T02:39:29.523Z,9.70
2018-04-26T02:41:57.886Z,9.60
2018-04-26T02:44:25.472Z,9.60
2018-04-26T02:46:52.976Z,9.60
2018-04-26T02:49:20.536Z,9.60
2018-04-26T02:51:48.071Z,9.60
2018-04-26T02:54:15.613Z,9.60
2018-04-26T02:56:43.163Z,9.60
2018-04-26T02:59:10.703Z,9.50
2018-04-26T03:01:39.028Z,9.40
2018-04-26T03:04:06.554Z,9.30
2018-04-26T03:06:34.115Z,9.30
2018-04-26T03:09:01.654Z,9.20
2018-04-26T03:11:29.987Z,9.30
2018-04-26T03:13:57.522Z,9.20
2018-04-26T03:16:25.071Z,9.20
2018-04-26T03:18:52.599Z,9.20
2018-04-26T03:21:20.176Z,9.10
2018-04-26T03:23:48.490Z,9.20
2018-04-26T03:26:16.034Z,9.20
2018-04-26T03:28:43.713Z,9.20
2018-04-26T03:31:11.326Z,9.10
2018-04-26T03:33:40.368Z,9.00
2018-04-26T03:36:07.908Z,9.00
2018-04-26T03:38:35.467Z,9.00
2018-04-26T03:41:03.008Z,8.90
2018-04-26T03:43:31.329Z,9.00
2018-04-26T03:45:58.855Z,9.00
2018-04-26T03:48:27.153Z,9.00
2018-04-26T03:50:54.703Z,9.00
2018-04-26T03:53:22.285Z,8.90
2018-04-26T03:55:49.846Z,9.00
2018-04-26T03:58:17.406Z,9.00
2018-04-26T04:00:56.922Z,9.00
2018-04-26T04:03:36.206Z,8.90
2018-04-26T04:06:14.614Z,9.00
2018-04-26T04:08:42.155Z,9.00
2018-04-26T04:11:09.745Z,9.00
2018-04-26T04:13:37.292Z,8.90
2018-04-26T04:16:04.843Z,8.90
2018-04-26T04:18:32.396Z,8.90
2018-04-26T04:20:59.953Z,8.90
2018-04-26T04:23:27.501Z,8.90
2018-04-26T04:25:55.061Z,8.90
2018-04-26T04:28:22.636Z,8.80
2018-04-26T04:30:50.190Z,8.90
2018-04-26T04:33:17.762Z,8.90
2018-04-26T04:35:45.287Z,9.00
2018-04-26T04:38:12.841Z,9.00
2018-04-26T04:40:40.384Z,8.90
2018-04-26T04:43:07.936Z,8.70
2018-04-26T04:45:36.234Z,8.70
2018-04-26T04:48:03.818Z,8.80
2018-04-26T04:50:31.376Z,8.70
2018-04-26T04:52:58.906Z,8.60
2018-04-26T04:55:26.445Z,8.60
2018-04-26T04:57:54.764Z,8.70
2018-04-26T05:00:22.299Z,8.70
2018-04-26T05:02:49.860Z,8.80
2018-04-26T05:05:17.403Z,8.80
2018-04-26T05:07:44.978Z,8.80
2018-04-26T05:10:12.544Z,8.70
2018-04-26T05:12:40.124Z,8.70
2018-04-26T05:15:08.411Z,8.70
2018-04-26T05:17:36.727Z,8.70
2018-04-26T05:20:04.311Z,8.60
2018-04-26T05:22:31.836Z,8.70
2018-04-26T05:24:59.390Z,8.80
2018-04-26T05:27:26.942Z,8.80
2018-04-26T05:29:54.521Z,8.90
2018-04-26T05:32:22.051Z,9.00
2018-04-26T05:34:50.363Z,9.20
2018-04-26T05:37:18.038Z,9.20
2018-04-26T05:39:45.567Z,9.30
2018-04-26T05:42:13.946Z,9.40
2018-04-26T05:44:42.287Z,9.30
2018-04-26T05:47:09.832Z,9.30
2018-04-26T05:49:37.387Z,9.30
2018-04-26T05:52:04.951Z,9.40
2018-04-26T05:54:32.475Z,9.50
2018-04-26T05:57:00.021Z,9.70
2018-04-26T05:59:27.589Z,9.90
2018-04-26T06:01:55.117Z,9.90
2018-04-26T06:04:23.442Z,9.80
2018-04-26T06:06:50.988Z,9.80
2018-04-26T06:09:18.551Z,9.90
2018-04-26T06:11:46.084Z,10.00
2018-04-26T06:14:13.684Z,9.80
2018-04-26T06:16:41.200Z,9.90
2018-04-26T06:19:09.558Z,10.40
2018-04-26T06:21:37.908Z,10.80
2018-04-26T06:24:05.440Z,10.80
2018-04-26T06:26:33.004Z,11.50
2018-04-26T06:29:00.538Z,12.00
2018-04-26T06:31:28.870Z,12.00
2018-04-26T06:33:56.416Z,12.00
2018-04-26T06:36:24.023Z,12.00
2018-04-26T06:38:51.578Z,11.60
2018-04-26T06:41:19.900Z,10.90
2018-04-26T06:43:47.476Z,10.80
2018-04-26T06:46:15.008Z,10.80
2018-04-26T06:48:42.568Z,10.90
2018-04-26T06:51:10.103Z,10.80
2018-04-26T06:53:37.672Z,10.70
2018-04-26T06:56:05.970Z,10.80
2018-04-26T06:58:33.539Z,10.70
2018-04-26T07:01:01.100Z,10.70
2018-04-26T07:03:28.668Z,10.60
2018-04-26T07:05:56.225Z,10.70
2018-04-26T07:08:23.788Z,10.70
2018-04-26T07:10:51.308Z,10.80
2018-04-26T07:13:18.857Z,10.70
2018-04-26T07:15:46.421Z,10.80
2018-04-26T07:18:13.963Z,10.60
2018-04-26T07:20:42.288Z,10.80
2018-04-26T07:23:09.848Z,10.80
2018-04-26T07:25:37.382Z,10.60
2018-04-26T07:28:04.942Z,10.60
2018-04-26T07:30:32.480Z,10.60
2018-04-26T07:33:00.036Z,10.60
2018-04-26T07:35:27.580Z,10.50
2018-04-26T07:37:55.133Z,10.50
2018-04-26T07:40:22.667Z,10.40
2018-04-26T07:42:50.196Z,10.50
2018-04-26T07:45:18.537Z,10.60
2018-04-26T07:47:46.086Z,10.60
2018-04-26T07:50:13.676Z,10.60
2018-04-26T07:52:42.717Z,10.50
2018-04-26T07:55:10.272Z,10.50
2018-04-26T07:57:37.861Z,10.50
2018-04-26T08:00:05.407Z,10.50
2018-04-26T08:02:32.964Z,10.80
2018-04-26T08:05:00.525Z,10.70
2018-04-26T08:07:28.088Z,10.80
2018-04-26T08:09:55.646Z,10.70
2018-04-26T08:12:23.208Z,10.80
2018-04-26T08:14:50.750Z,10.80
2018-04-26T08:17:18.311Z,10.80
2018-04-26T08:19:45.892Z,10.60
2018-04-26T08:22:13.459Z,10.80
2018-04-26T08:24:41.000Z,11.00
2018-04-26T08:27:08.586Z,11.30
2018-04-26T08:29:36.796Z,11.20
2018-04-26T08:32:04.319Z,11.30
2018-04-26T08:34:31.875Z,11.60
2018-04-26T08:36:59.403Z,11.60
2018-04-26T08:39:26.960Z,11.90
2018-04-26T08:41:54.529Z,11.90
2018-04-26T08:44:22.095Z,11.90
2018-04-26T08:46:49.639Z,12.00
2018-04-26T08:49:17.196Z,12.10
2018-04-26T08:51:44.760Z,12.40
2018-04-26T08:54:12.305Z,12.70
2018-04-26T08:56:40.639Z,12.10
2018-04-26T08:59:08.196Z,12.00
2018-04-26T09:01:35.740Z,11.90
2018-04-26T09:04:03.296Z,12.10
2018-04-26T09:06:30.857Z,12.20
2018-04-26T09:08:58.388Z,12.00
2018-04-26T09:11:26.714Z,12.50
2018-04-26T09:13:54.266Z,12.50
2018-04-26T09:16:21.846Z,12.10
2018-04-26T09:18:49.392Z,12.00
2018-04-26T09:21:16.951Z,12.00
2018-04-26T09:23:44.489Z,12.30
2018-04-26T09:26:12.321Z,12.30
2018-04-26T09:28:39.883Z,12.20
2018-04-26T09:31:07.416Z,12.10
2018-04-26T09:33:34.968Z,11.90
2018-04-26T09:36:02.527Z,12.40
2018-04-26T09:38:30.078Z,12.90
2018-04-26T09:40:57.610Z,13.10
2018-04-26T09:43:25.138Z,13.40
2018-04-26T09:45:53.458Z,14.90
2018-04-26T09:48:20.999Z,14.80
2018-04-26T09:50:48.582Z,15.00
2018-04-26T09:53:16.912Z,13.60
2018-04-26T09:55:44.475Z,13.60
2018-04-26T09:58:12.014Z,13.40
2018-04-26T10:00:42.370Z,13.30
2018-04-26T10:03:09.936Z,14.00
2018-04-26T10:05:41.450Z,17.00
2018-04-26T10:08:08.948Z,18.80
2018-04-26T10:10:36.503Z,20.20
2018-04-26T10:13:04.051Z,20.60
2018-04-26T10:15:31.603Z,21.50
2018-04-26T10:17:59.130Z,22.60
2018-04-26T10:20:27.440Z,24.50
2018-04-26T10:22:55.004Z,24.50
2018-04-26T10:25:22.566Z,23.10
2018-04-26T10:27:50.104Z,23.00
2018-04-26T10:30:18.430Z,19.70
2018-04-26T10:32:45.954Z,19.70
2018-04-26T10:35:13.493Z,18.30
2018-04-26T10:37:41.062Z,16.80
2018-04-26T10:40:08.595Z,15.80
2018-04-26T10:42:36.160Z,14.90
2018-04-26T10:45:03.691Z,14.40
2018-04-26T10:47:32.026Z,16.30
2018-04-26T10:49:59.560Z,16.30
2018-04-26T10:52:27.129Z,17.60
2018-04-26T10:54:54.662Z,19.60
2018-04-26T10:57:22.971Z,18.00
2018-04-26T10:59:50.511Z,17.90
2018-04-26T11:02:18.851Z,18.60
2018-04-26T11:04:47.138Z,18.00
2018-04-26T11:07:14.662Z,17.90
2018-04-26T11:09:42.987Z,16.50
2018-04-26T11:12:10.558Z,16.50
2018-04-26T11:14:38.139Z,16.90
2018-04-26T11:17:06.459Z,16.40
2018-04-26T11:19:34.026Z,16.40
2018-04-26T11:22:01.585Z,16.40
2018-04-26T11:24:29.942Z,16.00
2018-04-26T11:26:57.478Z,15.90
2018-04-26T11:29:25.104Z,15.40
2018-04-26T11:31:52.611Z,15.50
2018-04-26T11:34:20.154Z,16.10
2018-04-26T11:36:47.711Z,16.60
2018-04-26T11:39:15.249Z,17.00
2018-04-26T11:41:42.801Z,16.70
2018-04-26T11:44:10.347Z,17.60
2018-04-26T11:46:37.918Z,17.50
2018-04-26T11:49:05.463Z,17.60
2018-04-26T11:51:33.259Z,17.10
2018-04-26T11:54:00.787Z,16.60
2018-04-26T11:56:28.413Z,16.00
2018-04-26T11:58:55.904Z,16.20
2018-04-26T12:01:23.432Z,16.20
2018-04-26T12:03:51.063Z,15.50
2018-04-26T12:06:18.547Z,15.50
2018-04-26T12:08:46.106Z,15.80
2018-04-26T12:11:14.405Z,15.70
2018-04-26T12:13:41.969Z,15.70
2018-04-26T12:16:09.495Z,15.80
2018-04-26T12:18:37.829Z,15.60
2018-04-26T12:21:05.386Z,15.60
2018-04-26T12:23:32.944Z,16.20
2018-04-26T12:26:00.511Z,16.80
2018-04-26T12:28:28.064Z,17.30
2018-04-26T12:30:55.643Z,17.40
2018-04-26T12:33:23.174Z,17.60
2018-04-26T12:35:50.722Z,17.80
2018-04-26T12:38:18.275Z,17.70
2018-04-26T12:40:45.814Z,17.70
2018-04-26T12:43:13.367Z,17.70
2018-04-26T12:45:40.908Z,17.70
2018-04-26T12:48:08.475Z,17.60
2018-04-26T12:50:36.010Z,17.80
2018-04-26T12:53:03.613Z,17.30
2018-04-26T12:55:31.162Z,16.80
2018-04-26T12:57:58.734Z,17.30
2018-04-26T13:00:26.263Z,17.40
2018-04-26T13:02:53.859Z,17.40
2018-04-26T13:05:21.397Z,18.00
2018-04-26T13:07:49.809Z,17.60
2018-04-26T13:10:17.286Z,17.50
2018-04-26T13:12:44.820Z,17.50
2018-04-26T13:15:12.394Z,17.60
2018-04-26T13:17:39.941Z,17.40
2018-04-26T13:20:07.498Z,17.70
2018-04-26T13:22:35.062Z,17.50
2018-04-26T13:25:02.601Z,17.40
2018-04-26T13:27:30.195Z,17.60
2018-04-26T13:29:57.834Z,17.70
2018-04-26T13:32:25.322Z,17.40
2018-04-26T13:34:52.874Z,17.60
2018-04-26T13:37:20.418Z,18.10
2018-04-26T13:39:47.996Z,18.20
2018-04-26T13:42:15.795Z,18.10
2018-04-26T13:44:44.138Z,18.10
2018-04-26T13:47:11.684Z,18.10
2018-04-26T13:49:39.221Z,18.20
2018-04-26T13:52:06.915Z,17.70
2018-04-26T13:54:34.384Z,17.60
2018-04-26T13:57:01.953Z,17.50
2018-04-26T13:59:29.483Z,17.30
2018-04-26T14:01:57.031Z,17.60
2018-04-26T14:04:24.576Z,17.70
2018-04-26T14:06:52.903Z,17.40
2018-04-26T14:09:20.437Z,17.40
2018-04-26T14:11:47.993Z,17.30
2018-04-26T14:14:15.523Z,17.10
2018-04-26T14:16:43.873Z,17.40
2018-04-26T14:19:12.216Z,17.40
2018-04-26T14:21:39.780Z,17.40
2018-04-26T14:24:07.319Z,17.50
2018-04-26T14:26:34.869Z,16.80
2018-04-26T14:29:02.442Z,16.50
2018-04-26T14:31:29.983Z,16.50
2018-04-26T14:33:57.543Z,16.30
2018-04-26T14:36:25.094Z,16.40
2018-04-26T14:38:52.659Z,16.40
2018-04-26T14:41:20.198Z,16.00
2018-04-26T14:43:47.767Z,16.20
2018-04-26T14:46:15.316Z,16.70
2018-04-26T14:48:43.649Z,16.10
2018-04-26T14:51:11.192Z,16.00
2018-04-26T14:53:38.775Z,15.70
2018-04-26T14:56:06.315Z,15.90
2018-04-26T14:58:33.947Z,15.70
2018-04-26T15:01:01.452Z,15.20
2018-04-26T15:03:29.001Z,15.60
2018-04-26T15:05:56.575Z,15.90
2018-04-26T15:08:24.128Z,16.20
2018-04-26T15:10:51.700Z,16.40
2018-04-26T15:13:19.257Z,16.40
2018-04-26T15:15:46.815Z,16.10
2018-04-26T15:18:14.367Z,15.90
2018-04-26T15:20:41.914Z,16.10
2018-04-26T15:23:09.502Z,16.40
2018-04-26T15:25:37.035Z,16.40
2018-04-26T15:28:04.586Z,16.50
2018-04-26T15:30:32.131Z,16.60
2018-04-26T15:32:59.702Z,16.30
2018-04-26T15:35:27.236Z,16.10
2018-04-26T15:37:54.793Z,15.60
2018-04-26T15:40:22.345Z,15.60
2018-04-26T15:42:50.638Z,15.60
2018-04-26T15:45:18.215Z,15.60
2018-04-26T16:01:02.171Z,15.70
2018-04-26T16:03:41.586Z,15.60
2018-04-26T16:06:32.643Z,15.30
2018-04-26T16:09:12.869Z,14.60
2018-04-26T16:11:52.127Z,14.60
2018-04-26T16:14:35.227Z,14.40
2018-04-26T16:17:32.015Z,14.50
2018-04-26T16:20:17.173Z,14.50
2018-04-26T16:23:02.486Z,14.40
2018-04-26T16:25:52.779Z,14.30
2018-04-26T16:28:38.098Z,14.10
2018-04-26T16:31:24.030Z,13.90
2018-04-26T16:34:06.422Z,13.90
2018-04-26T16:36:45.852Z,14.10
2018-04-26T16:39:15.241Z,14.10
2018-04-26T16:41:43.559Z,14.20
2018-04-26T16:44:11.135Z,14.20
2018-04-26T16:46:38.714Z,14.20
2018-04-26T16:49:06.285Z,13.90
2018-04-26T16:51:34.607Z,13.90
2018-04-26T16:54:02.172Z,13.90
2018-04-26T16:56:29.775Z,14.00
2018-04-26T16:58:58.087Z,14.10
2018-04-26T17:01:25.630Z,14.10
2018-04-26T17:03:53.163Z,14.00
2018-04-26T17:06:20.715Z,14.00
2018-04-26T17:08:48.280Z,14.00
2018-04-26T17:11:15.854Z,13.80
2018-04-26T17:13:43.405Z,13.70
2018-04-26T17:16:11.071Z,13.60
2018-04-26T17:18:38.649Z,13.50
2018-04-26T17:21:06.195Z,13.50
2018-04-26T17:23:33.759Z,13.40
2018-04-26T17:26:01.324Z,13.40
2018-04-26T17:28:28.947Z,13.30
2018-04-26T17:30:56.515Z,13.30
2018-04-26T17:33:24.080Z,13.20
2018-04-26T17:35:51.793Z,13.20
2018-04-26T17:38:20.152Z,13.00
2018-04-26T17:40:47.703Z,13.00
2018-04-26T17:43:16.059Z,12.90
2018-04-26T17:45:43.670Z,12.90
2018-04-26T17:48:11.165Z,12.90
2018-04-26T17:50:38.752Z,12.90
2018-04-26T17:53:06.311Z,12.80
2018-04-26T17:55:33.881Z,12.70
2018-04-26T17:58:01.436Z,12.70
2018-04-26T18:00:29.019Z,12.60
2018-04-26T18:02:56.564Z,12.60
2018-04-26T18:05:24.274Z,12.50
2018-04-26T18:07:51.841Z,12.30
2018-04-26T18:10:19.412Z,12.30
2018-04-26T18:12:46.987Z,12.30
2018-04-26T18:15:14.552Z,12.30
2018-04-26T18:17:42.129Z,12.30
2018-04-26T18:20:09.679Z,12.30
2018-04-26T18:22:37.240Z,12.20
2018-04-26T18:25:04.828Z,12.20
2018-04-26T18:27:33.139Z,12.00
2018-04-26T18:30:00.727Z,12.00
2018-04-26T18:32:28.283Z,12.00
2018-04-26T18:34:56.614Z,11.80
2018-04-26T18:37:24.191Z,11.70
2018-04-26T18:39:51.765Z,11.70
2018-04-26T18:42:19.317Z,11.60
2018-04-26T18:44:46.940Z,11.60
2018-04-26T18:47:14.498Z,11.40
2018-04-26T18:49:42.106Z,11.40
2018-04-26T18:52:09.714Z,11.30
2018-04-26T18:54:37.326Z,11.30
2018-04-26T18:57:05.821Z,11.10
2018-04-26T18:59:33.427Z,11.10
2018-04-26T19:02:01.046Z,11.00
2018-04-26T19:04:28.702Z,11.10
2018-04-26T19:06:57.075Z,10.80
2018-04-26T19:09:24.727Z,10.80
2018-04-26T19:11:52.533Z,10.80
2018-04-26T19:14:20.295Z,10.80
2018-04-26T19:16:48.169Z,10.80
2018-04-26T19:19:16.041Z,10.90
2018-04-26T19:21:43.923Z,10.90
2018-04-26T19:24:12.713Z,10.80
2018-04-26T19:26:41.677Z,10.60
2018-04-26T19:29:09.666Z,10.60
2018-04-26T19:31:37.583Z,10.60
2018-04-26T19:34:05.704Z,10.50
2018-04-26T19:36:33.938Z,10.40
2018-04-26T19:39:01.899Z,10.30
2018-04-26T19:41:29.970Z,10.40
2018-04-26T19:43:57.939Z,10.40
2018-04-26T19:46:26.020Z,10.30
2018-04-26T19:48:54.892Z,10.10
2018-04-26T19:51:23.750Z,10.10
2018-04-26T19:53:51.822Z,10.10
2018-04-26T19:56:19.895Z,10.10
2018-04-26T19:58:48.072Z,10.20
2018-04-26T20:01:16.143Z,10.20
2018-04-26T20:03:44.467Z,10.30
2018-04-26T20:06:12.594Z,10.20
2018-04-26T20:08:40.773Z,10.30
2018-04-26T20:11:09.670Z,10.50
2018-04-26T20:13:38.759Z,10.60
2018-04-26T20:16:06.834Z,10.50
2018-04-26T20:18:35.618Z,10.50
2018-04-26T20:21:03.754Z,10.50
2018-04-26T20:23:31.764Z,10.20
2018-04-26T20:25:59.836Z,10.00
2018-04-26T20:28:27.906Z,10.10
2018-04-26T20:30:55.978Z,10.20
2018-04-26T20:33:23.843Z,10.30
2018-04-26T20:35:51.814Z,10.20
2018-04-26T20:38:19.789Z,10.00
2018-04-26T20:40:49.703Z,9.70
2018-04-26T20:43:18.461Z,9.50
2018-04-26T20:45:46.530Z,9.40
2018-04-26T20:48:26.430Z,9.30
2018-04-26T20:50:54.397Z,9.20
2018-04-26T20:53:22.473Z,9.10
2018-04-26T20:55:50.441Z,9.00
2018-04-26T20:58:18.440Z,8.90
2018-04-26T21:00:47.308Z,8.80
2018-04-26T21:03:15.175Z,8.80
2018-04-26T21:05:42.946Z,8.70
2018-04-26T21:08:10.520Z,8.60
2018-04-26T21:10:38.143Z,8.60
2018-04-26T21:13:05.705Z,8.50
2018-04-26T21:15:33.288Z,8.40
2018-04-26T21:18:01.651Z,8.40
2018-04-26T21:20:29.225Z,8.30
2018-04-26T21:22:57.584Z,8.20
2018-04-26T21:25:25.154Z,8.20
2018-04-26T21:27:52.719Z,8.10
2018-04-26T21:30:20.352Z,8.10
2018-04-26T21:32:47.950Z,8.10
2018-04-26T21:35:15.561Z,8.00
2018-04-26T21:37:43.901Z,7.90
2018-04-26T21:40:11.484Z,7.90
2018-04-26T21:42:39.067Z,7.90
2018-04-26T21:45:06.711Z,7.90
2018-04-26T21:47:34.288Z,7.90
2018-04-26T21:50:07.524Z,7.90
2018-04-26T21:52:41.448Z,7.60
2018-04-26T21:55:14.806Z,7.60
2018-04-26T21:57:48.237Z,7.70
2018-04-26T22:00:22.181Z,7.50
2018-04-26T22:02:49.313Z,7.50
2018-04-26T22:05:17.779Z,7.40
2018-04-26T22:07:46.148Z,7.40
2018-04-26T22:10:14.503Z,7.30
2018-04-26T22:12:42.853Z,7.20
2018-04-26T22:15:10.445Z,7.20
2018-04-26T22:17:38.049Z,7.20
2018-04-26T22:20:05.735Z,7.20
2018-04-26T22:22:33.316Z,7.10
2018-04-26T22:25:00.888Z,7.10
2018-04-26T22:27:28.458Z,7.10
2018-04-26T22:29:56.044Z,7.00
2018-04-26T22:32:24.372Z,6.90
2018-04-26T22:34:51.978Z,6.90
2018-04-26T22:37:20.350Z,6.80
2018-04-26T22:39:48.708Z,6.80
2018-04-26T22:42:16.270Z,6.80
2018-04-26T22:44:43.893Z,6.70
2018-04-26T22:47:12.275Z,6.70
2018-04-26T22:49:39.844Z,6.60
2018-04-26T22:52:07.403Z,6.60
2018-04-26T22:54:34.983Z,6.70
2018-04-26T22:57:02.569Z,6.60
2018-04-26T22:59:30.143Z,6.50
2018-04-26T23:01:57.733Z,6.50
2018-04-26T23:04:25.299Z,6.50
2018-04-26T23:06:52.900Z,6.40
2018-04-26T23:09:21.259Z,6.40
2018-04-26T23:11:48.845Z,6.30
2018-04-26T23:14:17.176Z,6.30
2018-04-26T23:16:44.771Z,6.20
2018-04-26T23:19:12.333Z,6.20
2018-04-26T23:21:39.922Z,6.20
2018-04-26T23:24:07.492Z,6.20
2018-04-26T23:26:35.097Z,6.10
2018-04-26T23:29:02.656Z,6.10
2018-04-26T23:31:30.256Z,6.00
2018-04-26T23:33:58.593Z,5.90
2018-04-26T23:36:26.188Z,5.90
2018-04-26T23:38:54.511Z,5.90
2018-04-26T23:41:22.100Z,5.90
2018-04-26T23:43:50.439Z,5.80
2018-04-26T23:46:18.024Z,5.80
2018-04-26T23:48:45.591Z,5.80
2018-04-26T23:51:13.184Z,6.00
2018-04-26T23:53:41.537Z,5.90
2018-04-26T23:56:09.121Z,5.90
2018-04-26T23:58:36.710Z,6.00
